createdAt,value
2022-09-27T00:12:04.474Z,997.8
2022-09-27T00:23:00.738Z,997.9
2022-09-27T00:37:56.863Z,998.1
2022-09-27T00:52:53.001Z,998.3
2022-09-27T01:07:49.248Z,998.4
2022-09-27T01:14:41.517Z,998.3
2022-09-27T01:29:37.582Z,998.6
2022-09-27T01:44:33.716Z,998.6
2022-09-27T01:51:18.197Z,998.6
2022-09-27T02:06:14.626Z,998.7
2022-09-27T02:21:11.182Z,998.6
2022-09-27T02:36:06.849Z,998.7
2022-09-27T02:51:03.006Z,998.8
2022-09-27T03:05:59.543Z,998.9
2022-09-27T03:20:56.125Z,999.1
2022-09-27T03:35:52.451Z,999.2
2022-09-27T03:50:48.315Z,999.2
2022-09-27T04:05:44.459Z,999.3
2022-09-27T04:20:40.467Z,999.3
2022-09-27T04:35:36.486Z,999.4
2022-09-27T04:50:34.485Z,999.5
2022-09-27T05:05:28.192Z,999.6
2022-09-27T05:20:24.598Z,999.8
2022-09-27T05:35:20.827Z,999.9
2022-09-27T05:50:16.909Z,1000.1
2022-09-27T06:05:12.971Z,1000.3
2022-09-27T06:20:09.360Z,1000.3
2022-09-27T06:35:05.487Z,1000.4
2022-09-27T06:50:01.987Z,1000.5
2022-09-27T07:04:58.715Z,1000.6
2022-09-27T07:19:55.419Z,1000.8
2022-09-27T07:34:51.401Z,1000.9
2022-09-27T07:49:47.863Z,1000.9
2022-09-27T08:04:44.531Z,1001
2022-09-27T08:19:41.241Z,1001.1
2022-09-27T08:34:37.484Z,1001.1
2022-09-27T08:49:33.909Z,1001.3
2022-09-27T09:04:30.452Z,1001.3
2022-09-27T09:19:26.756Z,1001.2
2022-09-27T09:34:22.876Z,1001.1
2022-09-27T09:49:19.831Z,1001
2022-09-27T10:04:16.060Z,1000.8
2022-09-27T10:19:11.683Z,1000.8
2022-09-27T10:34:07.509Z,1000.8
2022-09-27T10:49:04.542Z,1000.8
2022-09-27T11:04:00.681Z,1000.7
2022-09-27T11:18:57.221Z,1000.6
2022-09-27T11:33:53.351Z,1000.6
2022-09-27T11:48:49.802Z,1000.6
2022-09-27T12:03:46.012Z,1000.7
2022-09-27T12:18:42.025Z,1000.8
2022-09-27T12:33:38.559Z,1000.7
2022-09-27T12:48:35.047Z,1000.7
2022-09-27T13:03:32.148Z,1000.5
2022-09-27T13:18:28.640Z,1000.4
2022-09-27T13:33:24.602Z,1000.5
2022-09-27T13:48:21.217Z,1000.6
2022-09-27T14:03:18.004Z,1000.7
2022-09-27T14:18:13.347Z,1001
2022-09-27T14:33:08.754Z,1001
2022-09-27T14:48:04.541Z,1001
2022-09-27T15:03:00.841Z,1001.1
2022-09-27T15:17:57.121Z,1001.1
2022-09-27T15:32:53.303Z,1001.1
2022-09-27T15:47:49.584Z,1001.1
2022-09-27T16:02:45.362Z,1001.7
2022-09-27T16:17:40.667Z,1001.4
2022-09-27T16:47:32.903Z,1001.4
2022-09-27T17:02:28.362Z,1001.1
2022-09-27T17:17:24.680Z,1001
2022-09-27T17:32:20.880Z,1001
2022-09-27T17:47:17.325Z,1001
2022-09-27T18:02:13.480Z,1000.9
2022-09-27T18:17:09.624Z,1000.7
2022-09-27T18:32:05.606Z,1000.6
2022-09-27T18:47:02.100Z,1000.5
2022-09-27T19:16:54.114Z,1000.2
2022-09-27T19:31:50.375Z,1000.1
2022-09-27T19:46:46.495Z,1000.1
2022-09-27T20:01:43.001Z,1000
2022-09-27T20:16:41.308Z,999.9
2022-09-27T20:31:35.445Z,999.5
2022-09-27T20:46:32.079Z,999.3
2022-09-27T22:01:12.928Z,998.8
2022-09-27T22:16:09.040Z,998.6
2022-09-27T22:24:07.906Z,998.6
2022-09-27T22:39:02.854Z,998.4
2022-09-27T22:53:59.382Z,998.2
2022-09-27T23:08:55.665Z,998
2022-09-27T23:23:51.992Z,998
2022-09-27T23:38:48.160Z,997.9
2022-09-27T23:53:44.527Z,997.8
